Time;durP1;ratioP1;P1;durP2;ratioP2;P2;SDS_P1;SDS_P2;PMS_P1;PMS_P2;Temp;Humidity;BMP_temperature;BMP_pressure;BME280_temperature;BME280_humidity;BME280_pressure;Samples;Min_cycle;Max_cycle;Signal;HPM_P1;HPM_P2
2022/10/17 00:01:41;;;;;;;;;;;;;;;19.61;61.56;100606.06;4937710;28;7285;-83
2022/10/17 00:04:07;;;;;;;;;;;;;;;19.64;60.87;100603.50;4921953;28;8363;-85
2022/10/17 00:06:33;;;;;;;;;;;;;;;19.64;61.20;100601.75;4939405;28;6860;-86
2022/10/17 00:08:58;;;;;;;;;;;;;;;19.66;61.00;100604.38;4939143;28;7074;-86
2022/10/17 00:11:25;;;;;;;;;;;;;;;19.65;60.89;100608.72;4938209;28;8641;-86
2022/10/17 00:13:55;;;;;;;;;;;;;;;19.64;60.91;100606.94;4938542;28;6973;-86
2022/10/17 00:16:27;;;;;;;;;;;;;;;19.64;60.59;100612.16;4924824;28;8591;-84
2022/10/17 00:18:53;;;;;;;;;;;;;;;19.63;61.23;100604.34;4927594;28;8834;-86
2022/10/17 00:21:20;;;;;;;;;;;;;;;19.61;60.69;100599.13;4939971;28;6808;-86
2022/10/17 00:23:46;;;;;;;;;;;;;;;19.61;60.60;100595.66;4924522;28;8420;-83
2022/10/17 00:26:13;;;;;;;;;;;;;;;19.58;61.05;100593.88;4939269;28;7169;-84
2022/10/17 00:28:39;;;;;;;;;;;;;;;19.56;60.81;100588.66;4908018;28;6980;-86
2022/10/17 00:31:06;;;;;;;;;;;;;;;19.55;60.38;100591.22;4926951;28;7334;-86
2022/10/17 00:33:34;;;;;;;;;;;;;;;19.51;61.13;100595.53;4924391;28;6959;-86
2022/10/17 00:36:19;;;;;;;;;;;;;;;19.52;61.07;100591.19;4940755;28;6961;-86
2022/10/17 00:38:49;;;;;;;;;;;;;;;19.54;60.87;100597.28;4927281;28;7272;-87
2022/10/17 00:41:21;;;;;;;;;;;;;;;19.55;61.98;100586.91;4925918;28;8703;-86
2022/10/17 00:44:26;;;;;;;;;;;;;;;19.65;62.77;100590.53;4923088;28;6994;-86
2022/10/17 00:46:51;;;;;;;;;;;;;;;19.84;63.00;100586.44;4920094;28;8640;-87
2022/10/17 00:49:18;;;;;;;;;;;;;;;20.08;63.46;100584.13;4921174;28;8416;-84
2022/10/17 00:52:26;;;;;;;;;;;;;;;20.35;63.09;100580.09;4930814;28;8764;-87
2022/10/17 00:55:23;;;;;;;;;;;;;;;20.63;62.83;100590.78;4913412;28;8883;-86
2022/10/17 00:57:51;;;;;;;;;;;;;;;20.86;62.58;100587.53;4935453;28;7198;-87
2022/10/17 01:00:18;;;;;;;;;;;;;;;21.02;62.17;100585.94;4938369;28;7560;-88
2022/10/17 01:02:45;;;;;;;;;;;;;;;21.17;61.72;100583.47;4940027;28;7232;-86
2022/10/17 01:05:11;;;;;;;;;;;;;;;21.29;61.29;100581.78;4920145;28;8652;-86
2022/10/17 01:07:39;;;;;;;;;;;;;;;21.41;60.85;100581.00;4940597;28;6925;-87
2022/10/17 01:10:07;;;;;;;;;;;;;;;21.49;61.06;100580.19;4921988;28;8837;-87
2022/10/17 01:12:40;;;;;;;;;;;;;;;21.58;60.56;100581.09;4931180;28;7227;-86
2022/10/17 01:15:40;;;;;;;;;;;;;;;21.62;60.07;100577.63;4942070;28;6828;-83
2022/10/17 01:18:21;;;;;;;;;;;;;;;21.65;60.39;100575.91;4941012;28;6961;-88
2022/10/17 01:21:11;;;;;;;;;;;;;;;21.70;60.19;100578.56;4939432;28;6956;-87
2022/10/17 01:24:40;;;;;;;;;;;;;;;21.76;59.79;100581.22;4934925;28;6976;-85
2022/10/17 01:27:36;;;;;;;;;;;;;;;21.78;59.49;100582.09;4937832;28;6887;-83
2022/10/17 01:30:21;;;;;;;;;;;;;;;21.83;59.43;100583.88;4938775;28;8477;-86
2022/10/17 01:33:06;;;;;;;;;;;;;;;21.88;59.17;100584.75;4921694;28;11526;-86
2022/10/17 01:35:51;;;;;;;;;;;;;;;21.90;59.09;100581.28;4942692;28;7189;-86
2022/10/17 01:38:33;;;;;;;;;;;;;;;21.91;59.06;100572.59;4938919;28;6990;-83
2022/10/17 01:41:12;;;;;;;;;;;;;;;21.93;59.12;100575.22;4939196;28;7239;-87
2022/10/17 01:43:58;;;;;;;;;;;;;;;21.94;59.05;100569.13;4938837;28;7019;-87
2022/10/17 01:46:34;;;;;;;;;;;;;;;21.97;58.69;100574.34;4926347;28;8631;-86
2022/10/17 01:49:03;;;;;;;;;;;;;;;21.98;58.79;100572.63;4923893;28;6996;-84
2022/10/17 01:51:47;;;;;;;;;;;;;;;22.01;58.86;100570.88;4921857;28;8519;-84
2022/10/17 01:54:41;;;;;;;;;;;;;;;22.05;58.48;100572.63;4937393;28;7214;-86
2022/10/17 01:57:28;;;;;;;;;;;;;;;22.06;58.59;100571.75;4929260;28;8452;-85
2022/10/17 01:59:56;;;;;;;;;;;;;;;22.06;58.28;100563.94;4936090;28;7187;-87
2022/10/17 02:02:25;;;;;;;;;;;;;;;22.09;58.34;100570.91;4939865;28;6864;-86
2022/10/17 02:04:52;;;;;;;;;;;;;;;22.10;58.19;100567.44;4935804;28;7207;-87
2022/10/17 02:07:18;;;;;;;;;;;;;;;22.10;58.09;100564.81;4940886;28;6796;-88
2022/10/17 02:09:44;;;;;;;;;;;;;;;22.10;57.93;100556.09;4928218;28;6995;-87
2022/10/17 02:13:04;;;;;;;;;;;;;;;22.11;57.76;100568.28;4926039;28;8567;-85
2022/10/17 02:15:57;;;;;;;;;;;;;;;22.10;57.98;100558.72;4937201;28;7277;-85
2022/10/17 02:18:46;;;;;;;;;;;;;;;22.11;58.01;100556.13;4938240;28;7290;-86
2022/10/17 02:21:52;;;;;;;;;;;;;;;22.12;57.76;100549.19;4934502;28;7272;-87
2022/10/17 02:24:58;;;;;;;;;;;;;;;22.13;57.29;100548.31;4928525;29;7200;-86
2022/10/17 02:27:42;;;;;;;;;;;;;;;22.13;57.69;100546.53;4934525;28;7240;-85
2022/10/17 02:30:41;;;;;;;;;;;;;;;22.13;57.29;100550.91;4933680;28;7062;-86
2022/10/17 02:33:17;;;;;;;;;;;;;;;22.13;57.46;100545.69;4923479;28;11389;-86
2022/10/17 02:35:52;;;;;;;;;;;;;;;22.15;57.07;100543.94;4923106;29;8414;-85
2022/10/17 02:38:22;;;;;;;;;;;;;;;22.13;57.09;100540.47;4923188;28;7129;-87
2022/10/17 02:40:51;;;;;;;;;;;;;;;22.14;57.06;100537.84;4921148;29;8373;-87
2022/10/17 02:43:19;;;;;;;;;;;;;;;22.17;57.01;100539.59;4935489;28;8680;-86
2022/10/17 02:45:46;;;;;;;;;;;;;;;22.19;57.26;100535.25;4926370;28;7452;-87
2022/10/17 02:48:19;;;;;;;;;;;;;;;22.21;57.11;100536.13;4934822;28;6993;-87
2022/10/17 02:50:48;;;;;;;;;;;;;;;22.25;57.02;100540.50;4934140;28;8461;-87
2022/10/17 02:53:28;;;;;;;;;;;;;;;22.28;56.46;100543.09;4936111;28;6788;-87
2022/10/17 02:56:01;;;;;;;;;;;;;;;22.28;56.75;100543.09;4933696;28;7459;-82
2022/10/17 02:58:33;;;;;;;;;;;;;;;22.28;56.39;100540.50;4937548;28;6797;-81
2022/10/17 03:01:00;;;;;;;;;;;;;;;22.26;56.50;100546.56;4934325;28;7323;-79
2022/10/17 03:03:30;;;;;;;;;;;;;;;22.23;56.21;100542.22;4937266;28;6924;-80
2022/10/17 03:05:56;;;;;;;;;;;;;;;22.19;56.00;100549.19;4935765;28;6978;-79
2022/10/17 03:08:22;;;;;;;;;;;;;;;22.17;56.15;100550.94;4939622;29;6967;-79
2022/10/17 03:10:47;;;;;;;;;;;;;;;22.13;56.07;100546.53;4935203;28;6848;-82
2022/10/17 03:13:14;;;;;;;;;;;;;;;22.15;56.14;100557.84;4928431;28;8477;-80
2022/10/17 03:15:40;;;;;;;;;;;;;;;22.14;56.15;100560.47;4916475;28;7029;-80
2022/10/17 03:18:08;;;;;;;;;;;;;;;22.14;56.38;100555.25;4935812;28;6804;-80
2022/10/17 03:20:34;;;;;;;;;;;;;;;22.11;56.62;100561.34;4936543;29;6839;-79
2022/10/17 03:23:00;;;;;;;;;;;;;;;22.12;56.24;100557.00;4919627;29;6792;-80
2022/10/17 03:25:26;;;;;;;;;;;;;;;22.14;56.20;100565.69;4921859;28;8467;-79
2022/10/17 03:27:51;;;;;;;;;;;;;;;22.17;56.52;100570.91;4935473;28;7818;-79
2022/10/17 03:30:18;;;;;;;;;;;;;;;22.18;56.42;100562.22;4937274;28;6784;-80
2022/10/17 03:32:44;;;;;;;;;;;;;;;22.20;56.04;100565.69;4941029;28;6976;-79
2022/10/17 03:35:09;;;;;;;;;;;;;;;22.23;56.09;100578.78;4920297;29;8686;-79
2022/10/17 03:37:35;;;;;;;;;;;;;;;22.26;56.25;100573.56;4931630;28;6796;-79
2022/10/17 03:40:01;;;;;;;;;;;;;;;22.27;55.93;100575.28;4931753;28;6780;-79
2022/10/17 03:42:26;;;;;;;;;;;;;;;22.27;56.23;100580.50;4933178;28;7225;-79
2022/10/17 03:44:52;;;;;;;;;;;;;;;22.28;55.89;100581.41;4933084;28;6792;-77
2022/10/17 03:47:17;;;;;;;;;;;;;;;22.26;56.21;100586.59;4934463;28;6907;-80
2022/10/17 03:49:43;;;;;;;;;;;;;;;22.22;56.11;100579.66;4918355;29;6852;-78
2022/10/17 03:52:13;;;;;;;;;;;;;;;22.21;56.22;100580.50;4934100;28;7860;-79
2022/10/17 03:54:39;;;;;;;;;;;;;;;22.18;56.20;100580.50;4924457;28;7279;-79
2022/10/17 03:57:05;;;;;;;;;;;;;;;22.18;56.25;100577.88;4938950;28;6812;-78
2022/10/17 03:59:30;;;;;;;;;;;;;;;22.19;55.88;100579.63;4931985;28;7475;-78
2022/10/17 04:01:56;;;;;;;;;;;;;;;22.20;56.08;100573.53;4933792;28;8237;-79
2022/10/17 04:04:22;;;;;;;;;;;;;;;22.20;55.99;100561.38;4924603;28;6776;-79
2022/10/17 04:06:47;;;;;;;;;;;;;;;22.23;56.00;100565.72;4935794;28;7861;-78
2022/10/17 04:09:13;;;;;;;;;;;;;;;22.26;56.01;100578.78;4925361;28;6776;-78
2022/10/17 04:11:39;;;;;;;;;;;;;;;22.27;55.94;100579.66;4936773;28;6923;-81
2022/10/17 04:14:05;;;;;;;;;;;;;;;22.28;55.80;100574.41;4935013;28;6860;-79
2022/10/17 04:16:30;;;;;;;;;;;;;;;22.28;56.16;100576.19;4936551;28;7161;-81
2022/10/17 04:18:58;;;;;;;;;;;;;;;22.29;55.99;100572.69;4941668;28;6796;-78
2022/10/17 04:21:27;;;;;;;;;;;;;;;22.31;55.77;100579.69;4926651;28;7237;-78
2022/10/17 04:23:59;;;;;;;;;;;;;;;22.32;56.11;100578.81;4929382;28;6824;-80
2022/10/17 04:26:26;;;;;;;;;;;;;;;22.35;55.93;100580.53;4932166;28;7057;-78
2022/10/17 04:28:52;;;;;;;;;;;;;;;22.37;56.11;100589.25;4937643;28;6977;-79
2022/10/17 04:31:18;;;;;;;;;;;;;;;22.42;55.69;100595.34;4936176;28;6804;-78
2022/10/17 04:33:47;;;;;;;;;;;;;;;22.43;55.90;100589.25;4936296;28;6958;-79
2022/10/17 04:36:16;;;;;;;;;;;;;;;;;;4941770;28;6876;-80
2022/10/17 04:38:41;;;;;;;;;;;;;;;22.44;55.53;100588.38;4940628;28;6808;-78
2022/10/17 04:41:12;;;;;;;;;;;;;;;22.45;55.23;100586.66;4937199;28;6781;-81
2022/10/17 04:43:39;;;;;;;;;;;;;;;22.47;55.35;100587.50;4908735;28;7536;-79
2022/10/17 04:46:11;;;;;;;;;;;;;;;22.48;55.51;100592.75;4937257;28;7007;-79
2022/10/17 04:48:38;;;;;;;;;;;;;;;22.51;55.60;100584.09;4923081;28;8797;-80
2022/10/17 04:51:13;;;;;;;;;;;;;;;22.51;55.04;100586.72;4921830;28;8906;-81
2022/10/17 04:53:41;;;;;;;;;;;;;;;22.54;55.06;100589.31;4937002;28;6816;-78
2022/10/17 04:56:14;;;;;;;;;;;;;;;22.58;55.25;100596.25;4930601;28;7210;-79
2022/10/17 04:58:41;;;;;;;;;;;;;;;22.60;55.13;100609.34;4923209;28;6796;-78
2022/10/17 05:01:13;;;;;;;;;;;;;;;22.61;54.74;100621.53;4929069;28;6789;-78
2022/10/17 05:03:39;;;;;;;;;;;;;;;22.59;54.91;100618.91;4913804;28;8353;-79
2022/10/17 05:06:16;;;;;;;;;;;;;;;22.61;55.05;100630.25;4935866;28;8345;-78
2022/10/17 05:08:42;;;;;;;;;;;;;;;22.60;55.12;100625.91;4923059;28;8566;-78
2022/10/17 05:11:18;;;;;;;;;;;;;;;22.58;54.63;100638.06;4923625;28;8807;-81
2022/10/17 05:13:48;;;;;;;;;;;;;;;22.55;55.04;100632.84;4931637;28;6962;-78
2022/10/17 05:16:13;;;;;;;;;;;;;;;22.52;54.65;100643.28;4933625;28;6836;-78
2022/10/17 05:18:39;;;;;;;;;;;;;;;22.46;54.70;100643.22;4937881;28;7393;-79
2022/10/17 05:21:05;;;;;;;;;;;;;;;22.41;54.68;100640.59;4939129;28;7122;-78
2022/10/17 05:23:30;;;;;;;;;;;;;;;22.40;55.03;100637.97;4939206;28;7260;-78
2022/10/17 05:25:56;;;;;;;;;;;;;;;22.36;55.14;100636.25;4938350;28;7137;-77
2022/10/17 05:28:23;;;;;;;;;;;;;;;22.31;55.03;100639.72;4929391;28;6948;-78
2022/10/17 05:30:48;;;;;;;;;;;;;;;22.30;54.89;100639.69;4918561;28;6975;-79
2022/10/17 05:33:14;;;;;;;;;;;;;;;22.26;55.21;100636.22;4935073;28;6776;-78
2022/10/17 05:35:40;;;;;;;;;;;;;;;22.22;55.18;100638.81;4935013;28;7938;-78
2022/10/17 05:38:06;;;;;;;;;;;;;;;22.21;55.12;100637.91;4939338;28;6780;-78
2022/10/17 05:40:33;;;;;;;;;;;;;;;22.21;55.21;100637.91;4938238;28;7414;-79
2022/10/17 05:42:58;;;;;;;;;;;;;;;22.18;55.28;100640.53;4937568;28;6793;-78
2022/10/17 05:45:24;;;;;;;;;;;;;;;22.16;55.04;100634.44;4939243;28;7115;-79
2022/10/17 05:47:50;;;;;;;;;;;;;;;22.12;55.19;100632.69;4916904;28;8495;-78
2022/10/17 05:50:16;;;;;;;;;;;;;;;22.12;55.21;100638.75;4939736;28;6924;-78
2022/10/17 05:52:42;;;;;;;;;;;;;;;22.12;55.40;100635.31;4936107;28;6776;-81
2022/10/17 05:55:08;;;;;;;;;;;;;;;22.10;55.04;100635.28;4940267;28;6796;-77
2022/10/17 05:57:34;;;;;;;;;;;;;;;22.10;55.39;100639.63;4936933;28;6784;-79
2022/10/17 06:00:00;;;;;;;;;;;;;;;22.10;55.49;100637.91;4933832;28;6789;-81
2022/10/17 06:02:25;;;;;;;;;;;;;;;22.09;55.35;100632.66;4926923;28;8392;-78
2022/10/17 06:04:51;;;;;;;;;;;;;;;22.09;55.51;100637.88;4941227;28;7047;-80
2022/10/17 06:07:17;;;;;;;;;;;;;;;22.11;55.57;100636.13;4937902;28;6784;-78
2022/10/17 06:09:42;;;;;;;;;;;;;;;22.13;55.57;100639.66;4936101;28;6788;-81
2022/10/17 06:12:08;;;;;;;;;;;;;;;22.14;55.01;100630.94;4908146;28;8869;-80
2022/10/17 06:14:34;;;;;;;;;;;;;;;22.16;55.10;100645.75;4917744;28;7211;-78
2022/10/17 06:17:00;;;;;;;;;;;;;;;22.19;54.95;100647.47;4922989;28;8446;-78
2022/10/17 06:19:25;;;;;;;;;;;;;;;22.20;55.48;100642.28;4938019;28;8307;-78
2022/10/17 06:21:51;;;;;;;;;;;;;;;22.22;55.30;100649.25;4935481;28;6999;-79
2022/10/17 06:24:17;;;;;;;;;;;;;;;22.22;54.85;100655.34;4935460;28;7233;-79
2022/10/17 06:26:42;;;;;;;;;;;;;;;22.24;54.80;100651.00;4938162;28;6991;-79
2022/10/17 06:29:09;;;;;;;;;;;;;;;22.27;55.41;100656.22;4938157;28;6861;-78
2022/10/17 06:31:34;;;;;;;;;;;;;;;22.29;54.76;100666.69;4936845;28;7015;-79
2022/10/17 06:34:00;;;;;;;;;;;;;;;22.32;54.90;100667.56;4921162;29;7287;-79
2022/10/17 06:36:26;;;;;;;;;;;;;;;22.34;54.93;100660.59;4934742;28;7145;-78
2022/10/17 06:38:51;;;;;;;;;;;;;;;22.38;54.58;100666.72;4929328;28;7176;-78
2022/10/17 06:41:20;;;;;;;;;;;;;;;22.42;54.86;100672.81;4930519;28;7305;-79
2022/10/17 06:43:46;;;;;;;;;;;;;;;22.45;54.84;100672.81;4930336;28;7267;-79
2022/10/17 06:46:16;;;;;;;;;;;;;;;22.46;54.56;100674.56;4920290;28;8513;-79
2022/10/17 06:48:41;;;;;;;;;;;;;;;22.48;54.38;100678.94;4929219;28;6808;-79
2022/10/17 06:51:10;;;;;;;;;;;;;;;22.49;54.53;100669.38;4923123;28;6980;-79
2022/10/17 06:53:38;;;;;;;;;;;;;;;22.51;54.34;100680.72;4937582;28;6989;-81
2022/10/17 06:56:06;;;;;;;;;;;;;;;22.53;54.08;100681.59;4922925;29;8521;-79
2022/10/17 06:58:37;;;;;;;;;;;;;;;22.54;54.13;100677.22;4924042;29;6784;-79
2022/10/17 07:01:08;;;;;;;;;;;;;;;22.57;54.18;100677.25;4930752;28;7219;-78
2022/10/17 07:03:34;;;;;;;;;;;;;;;22.58;54.25;100682.44;4908181;29;8471;-80
2022/10/17 07:05:59;;;;;;;;;;;;;;;22.61;53.92;100679.00;4916241;28;8684;-78
2022/10/17 07:08:25;;;;;;;;;;;;;;;22.64;54.11;100675.53;4933396;28;7318;-78
2022/10/17 07:10:51;;;;;;;;;;;;;;;22.66;53.84;100681.63;4938177;28;6799;-78
2022/10/17 07:13:18;;;;;;;;;;;;;;;22.67;53.71;100686.84;4927146;29;8827;-78
2022/10/17 07:15:44;;;;;;;;;;;;;;;22.70;54.21;100692.06;4929512;28;8466;-80
2022/10/17 07:18:10;;;;;;;;;;;;;;;22.71;53.76;100693.81;4915483;28;8534;-80
2022/10/17 07:20:37;;;;;;;;;;;;;;;22.74;53.76;100698.19;4937456;28;6992;-78
2022/10/17 07:23:03;;;;;;;;;;;;;;;22.75;54.10;100702.53;4932299;28;7264;-78
2022/10/17 07:25:28;;;;;;;;;;;;;;;22.75;53.98;100703.41;4935763;28;6792;-79
2022/10/17 07:27:54;;;;;;;;;;;;;;;22.77;54.17;100711.25;4934450;28;6792;-77
2022/10/17 07:30:21;;;;;;;;;;;;;;;22.78;54.18;100722.56;4933222;28;7179;-81
2022/10/17 07:32:47;;;;;;;;;;;;;;;22.78;53.96;100714.75;4940526;28;7063;-79
2022/10/17 07:35:14;;;;;;;;;;;;;;;22.82;54.06;100719.09;4936219;28;8785;-79
2022/10/17 07:37:40;;;;;;;;;;;;;;;22.85;53.75;100724.34;4923821;28;8521;-79
2022/10/17 07:40:07;;;;;;;;;;;;;;;22.90;53.92;100730.44;4924195;28;6859;-78
2022/10/17 07:42:35;;;;;;;;;;;;;;;22.96;54.00;100729.56;4926720;28;8428;-79
2022/10/17 07:45:03;;;;;;;;;;;;;;;23.04;53.82;100733.06;4936739;28;6804;-78
2022/10/17 07:47:29;;;;;;;;;;;;;;;23.10;53.71;100727.88;4935948;28;6846;-77
2022/10/17 07:49:56;;;;;;;;;;;;;;;23.21;53.32;100729.63;4938800;28;6820;-78
2022/10/17 07:52:22;;;;;;;;;;;;;;;23.32;53.58;100740.09;4939017;28;8596;-78
2022/10/17 07:54:48;;;;;;;;;;;;;;;23.38;53.39;100742.72;4937489;28;6851;-78
2022/10/17 07:57:14;;;;;;;;;;;;;;;23.45;52.63;100744.47;4939386;28;7230;-78
2022/10/17 07:59:40;;;;;;;;;;;;;;;23.52;53.11;100745.34;4939424;28;7357;-80
2022/10/17 08:02:07;;;;;;;;;;;;;;;23.58;52.67;100742.75;4939253;28;7718;-80
2022/10/17 08:04:33;;;;;;;;;;;;;;;23.67;52.08;100747.06;4939136;28;7256;-79
2022/10/17 08:06:59;;;;;;;;;;;;;;;23.76;52.49;100759.28;4943338;28;7219;-78
2022/10/17 08:09:25;;;;;;;;;;;;;;;23.83;52.02;100759.28;4941045;28;6945;-78
2022/10/17 08:11:50;;;;;;;;;;;;;;;23.90;52.13;100754.91;4923828;28;8592;-78
2022/10/17 08:14:16;;;;;;;;;;;;;;;23.98;51.74;100765.34;4938237;28;7329;-79
2022/10/17 08:16:42;;;;;;;;;;;;;;;24.04;52.17;100767.06;4939246;28;7411;-79
2022/10/17 08:19:10;;;;;;;;;;;;;;;24.10;51.38;100777.59;4938453;28;6792;-79
2022/10/17 08:21:36;;;;;;;;;;;;;;;24.23;51.26;100766.19;4933423;28;6868;-79
2022/10/17 08:24:02;;;;;;;;;;;;;;;24.29;51.28;100767.06;4936107;28;7282;-78
2022/10/17 08:26:28;;;;;;;;;;;;;;;24.36;51.16;100784.50;4941129;28;7403;-78
2022/10/17 08:28:54;;;;;;;;;;;;;;;24.40;50.83;100789.72;4930080;28;6784;-77
2022/10/17 08:31:20;;;;;;;;;;;;;;;24.44;50.46;100800.19;4931238;28;6800;-78
2022/10/17 08:33:48;;;;;;;;;;;;;;;24.45;49.92;100805.44;4938555;28;7282;-80
2022/10/17 08:36:18;;;;;;;;;;;;;;;24.46;50.42;100801.03;4918780;28;8442;-78
2022/10/17 08:38:45;;;;;;;;;;;;;;;24.42;50.00;100794.94;4926384;28;8549;-79
2022/10/17 08:41:58;;;;;;;;;;;;;;;24.38;49.76;100798.47;4921759;28;7191;-78
2022/10/17 08:44:57;;;;;;;;;;;;;;;24.38;49.86;100807.19;4936060;28;7387;-79
2022/10/17 08:47:44;;;;;;;;;;;;;;;24.44;49.76;100811.56;4942220;28;7212;-79
2022/10/17 08:50:50;;;;;;;;;;;;;;;24.62;50.10;100812.34;4930662;28;6992;-82
2022/10/17 08:53:45;;;;;;;;;;;;;;;24.78;50.01;100813.22;4907930;28;9013;-78
2022/10/17 08:56:32;;;;;;;;;;;;;;;24.92;49.82;100824.47;4937263;28;7487;-79
2022/10/17 08:58:58;;;;;;;;;;;;;;;25.02;49.26;100827.06;4916692;28;6982;-79
2022/10/17 09:01:46;;;;;;;;;;;;;;;25.05;49.28;100833.16;4919814;28;7421;-79
2022/10/17 09:04:42;;;;;;;;;;;;;;;25.04;48.97;100841.03;4933045;28;6816;-79
2022/10/17 09:07:36;;;;;;;;;;;;;;;25.02;48.55;100838.44;4927852;28;7167;-81
2022/10/17 09:10:48;;;;;;;;;;;;;;;25.02;49.00;100838.44;4938394;28;7072;-78
2022/10/17 09:13:47;;;;;;;;;;;;;;;25.04;48.92;100848.88;4928632;28;6985;-79
2022/10/17 09:16:58;;;;;;;;;;;;;;;25.07;48.69;100854.13;4939212;28;7507;-78
2022/10/17 09:20:13;;;;;;;;;;;;;;;25.12;48.80;100851.50;4927699;28;7256;-79
2022/10/17 09:22:49;;;;;;;;;;;;;;;25.14;48.58;100854.97;4940634;28;7282;-78
2022/10/17 09:25:19;;;;;;;;;;;;;;;25.16;48.66;100861.06;4934856;28;7224;-79
2022/10/17 09:28:20;;;;;;;;;;;;;;;25.18;48.31;100865.44;4936645;28;6973;-78
2022/10/17 09:30:55;;;;;;;;;;;;;;;25.12;48.45;100867.22;4936054;28;6813;-78
2022/10/17 09:33:38;;;;;;;;;;;;;;;25.14;48.72;100874.19;4936020;28;7256;-79
2022/10/17 09:36:33;;;;;;;;;;;;;;;25.12;48.42;100872.47;4936406;28;7246;-78
2022/10/17 09:39:19;;;;;;;;;;;;;;;25.05;48.07;100874.22;4929215;28;8531;-80
2022/10/17 09:41:54;;;;;;;;;;;;;;;24.96;48.48;100867.28;4936882;28;7435;-79
2022/10/17 09:44:48;;;;;;;;;;;;;;;24.90;48.80;100869.91;4910253;28;9021;-78
2022/10/17 09:47:29;;;;;;;;;;;;;;;24.85;48.18;100880.41;4938226;28;7472;-80
2022/10/17 09:49:56;;;;;;;;;;;;;;;24.81;48.81;100882.19;4936136;28;7018;-78
2022/10/17 09:52:32;;;;;;;;;;;;;;;24.78;48.82;100876.97;4932652;28;7759;-78
2022/10/17 09:55:06;;;;;;;;;;;;;;;24.76;48.39;100889.16;4924182;28;8664;-78
2022/10/17 09:58:04;;;;;;;;;;;;;;;24.75;48.71;100891.78;4926197;28;7498;-79
2022/10/17 10:00:34;;;;;;;;;;;;;;;24.73;48.50;100898.78;4934590;28;7031;-78
2022/10/17 10:03:11;;;;;;;;;;;;;;;24.70;48.67;100899.66;4938022;28;6981;-79
2022/10/17 10:05:38;;;;;;;;;;;;;;;24.68;49.01;100901.41;4934323;28;7196;-79
2022/10/17 10:08:18;;;;;;;;;;;;;;;24.73;48.75;100912.78;4924034;28;8531;-79
2022/10/17 10:10:44;;;;;;;;;;;;;;;24.77;49.00;100914.50;4916302;28;11673;-82
2022/10/17 10:13:12;;;;;;;;;;;;;;;24.82;49.16;100930.25;4921663;28;6848;-77
2022/10/17 10:15:42;;;;;;;;;;;;;;;24.88;49.44;100935.47;4936824;28;7209;-78
2022/10/17 10:18:29;;;;;;;;;;;;;;;24.99;48.77;100931.94;4919036;28;8469;-79
2022/10/17 10:21:09;;;;;;;;;;;;;;;25.02;48.43;100924.06;4936186;28;6936;-78
2022/10/17 10:23:40;;;;;;;;;;;;;;;25.06;48.85;100921.41;4937182;28;8548;-78
2022/10/17 10:26:26;;;;;;;;;;;;;;;25.08;48.95;100927.53;4935295;28;6993;-78
2022/10/17 10:29:00;;;;;;;;;;;;;;;25.08;48.66;100908.31;4938065;28;6816;-78
2022/10/17 10:31:37;;;;;;;;;;;;;;;25.09;48.89;100882.06;4907305;28;8437;-79
2022/10/17 10:34:30;;;;;;;;;;;;;;;25.08;48.84;100889.97;4938597;28;7040;-78
2022/10/17 10:37:15;;;;;;;;;;;;;;;25.06;49.12;100897.81;4912969;28;8502;-79
2022/10/17 10:39:48;;;;;;;;;;;;;;;25.06;48.85;100910.06;4934859;28;6820;-78
2022/10/17 10:42:31;;;;;;;;;;;;;;;25.05;49.05;100917.06;4941210;28;7207;-80
2022/10/17 10:45:27;;;;;;;;;;;;;;;25.09;49.11;100923.16;4922819;28;7238;-80
2022/10/17 10:48:01;;;;;;;;;;;;;;;25.13;48.72;100921.41;4936904;28;7078;-76
2022/10/17 10:51:05;;;;;;;;;;;;;;;25.20;49.04;100920.47;4934697;28;7032;-77
2022/10/17 10:54:01;;;;;;;;;;;;;;;25.29;48.76;100935.31;4933671;28;7204;-76
2022/10/17 10:56:45;;;;;;;;;;;;;;;25.32;49.28;100936.19;4933313;28;7208;-78
2022/10/17 10:59:28;;;;;;;;;;;;;;;25.39;49.10;100937.03;4922408;29;7243;-77
2022/10/17 11:02:06;;;;;;;;;;;;;;;25.43;49.06;100946.59;4934821;28;6817;-76
2022/10/17 11:05:10;;;;;;;;;;;;;;;25.56;48.93;100959.72;4928984;28;7073;-76
2022/10/17 11:07:46;;;;;;;;;;;;;;;25.69;49.17;100952.59;4906162;28;7155;-76
2022/10/17 11:10:29;;;;;;;;;;;;;;;25.88;49.28;100963.88;4929958;28;6975;-76
2022/10/17 11:13:12;;;;;;;;;;;;;;;26.05;48.88;100966.38;4926969;29;6975;-76
2022/10/17 11:15:53;;;;;;;;;;;;;;;26.19;48.62;100966.28;4931382;28;7574;-76
2022/10/17 11:18:48;;;;;;;;;;;;;;;26.32;48.10;100985.47;4932768;28;7161;-79
2022/10/17 11:21:52;;;;;;;;;;;;;;;26.36;47.94;100991.56;4932137;28;6901;-81
2022/10/17 11:24:28;;;;;;;;;;;;;;;26.36;47.99;100987.16;4931525;28;7228;-79
2022/10/17 11:27:04;;;;;;;;;;;;;;;26.38;47.97;100995.03;4936253;28;7060;-78
2022/10/17 11:29:35;;;;;;;;;;;;;;;26.38;48.06;101001.19;4925009;29;8580;-78
2022/10/17 11:32:12;;;;;;;;;;;;;;;26.39;47.23;101002.03;4936924;28;7189;-78
2022/10/17 11:34:50;;;;;;;;;;;;;;;26.36;47.09;101009.97;4936969;28;6808;-78
2022/10/17 11:37:27;;;;;;;;;;;;;;;26.31;47.07;101007.38;4922075;29;8092;-77
2022/10/17 11:40:01;;;;;;;;;;;;;;;26.25;47.16;101013.53;4932845;28;6817;-77
2022/10/17 11:42:46;;;;;;;;;;;;;;;26.21;47.13;101019.69;4935311;28;6887;-78
2022/10/17 11:45:19;;;;;;;;;;;;;;;26.11;47.06;101013.63;4932713;28;7262;-78
2022/10/17 11:47:53;;;;;;;;;;;;;;;26.08;47.21;101024.16;4919609;29;6797;-78
2022/10/17 11:50:39;;;;;;;;;;;;;;;26.06;46.95;101029.41;4936307;28;8956;-78
2022/10/17 11:53:27;;;;;;;;;;;;;;;26.04;46.96;101019.78;4928494;29;7193;-78
2022/10/17 11:55:58;;;;;;;;;;;;;;;25.96;46.60;101027.72;4934856;28;7199;-77
2022/10/17 11:59:01;;;;;;;;;;;;;;;25.91;47.09;101018.97;4937530;28;6820;-77
2022/10/17 12:01:46;;;;;;;;;;;;;;;25.88;47.13;101019.00;4930559;28;7211;-76
2022/10/17 12:04:51;;;;;;;;;;;;;;;25.86;47.20;101019.00;4933448;28;7989;-77
2022/10/17 12:08:24;;;;;;;;;;;;;;;25.87;47.09;101022.53;4937734;28;7302;-78
2022/10/17 12:11:33;;;;;;;;;;;;;;;25.89;47.05;101026.00;4904047;28;7676;-78
2022/10/17 12:14:00;;;;;;;;;;;;;;;25.92;47.51;101025.97;4918133;29;8559;-79
2022/10/17 12:16:29;;;;;;;;;;;;;;;25.98;47.36;101028.56;4936096;28;6824;-78
2022/10/17 12:19:00;;;;;;;;;;;;;;;26.02;47.45;101034.69;4943550;28;6780;-76
2022/10/17 12:21:26;;;;;;;;;;;;;;;26.02;47.56;101037.31;4923264;28;6974;-77
2022/10/17 12:23:54;;;;;;;;;;;;;;;25.99;47.32;101040.81;4923774;28;7406;-78
2022/10/17 12:26:28;;;;;;;;;;;;;;;25.96;47.35;101040.84;4928971;28;7002;-78
2022/10/17 12:28:56;;;;;;;;;;;;;;;25.91;47.41;101038.25;4936251;28;7253;-77
2022/10/17 12:31:25;;;;;;;;;;;;;;;25.88;47.28;101046.16;4933987;28;6990;-77
2022/10/17 12:33:57;;;;;;;;;;;;;;;25.84;47.38;101043.56;4921314;28;6801;-79
2022/10/17 12:36:27;;;;;;;;;;;;;;;25.78;47.75;101045.31;4940003;28;7044;-78
2022/10/17 12:39:01;;;;;;;;;;;;;;;25.74;47.51;101054.09;4940184;28;7141;-78
2022/10/17 12:41:39;;;;;;;;;;;;;;;25.70;47.76;101046.25;4938070;28;7146;-80
2022/10/17 12:44:25;;;;;;;;;;;;;;;25.66;47.94;101048.00;4925071;28;8688;-78
2022/10/17 12:47:03;;;;;;;;;;;;;;;25.65;47.79;101043.66;4936137;28;7286;-79
2022/10/17 12:49:50;;;;;;;;;;;;;;;25.61;47.73;101048.03;4937496;28;7164;-76
2022/10/17 12:52:30;;;;;;;;;;;;;;;25.59;47.78;101052.41;4905175;28;7238;-77
2022/10/17 12:55:13;;;;;;;;;;;;;;;25.55;48.10;101063.78;4939096;28;6929;-78
2022/10/17 12:57:58;;;;;;;;;;;;;;;25.50;47.72;101057.69;4916677;28;7469;-77
2022/10/17 13:00:34;;;;;;;;;;;;;;;25.48;48.63;101067.28;4934987;28;7643;-78
2022/10/17 13:03:18;;;;;;;;;;;;;;;25.44;47.99;101062.94;4926949;28;8493;-77
2022/10/17 13:06:01;;;;;;;;;;;;;;;25.42;48.13;101073.41;4926442;28;8989;-78
2022/10/17 13:08:41;;;;;;;;;;;;;;;25.41;48.31;101073.44;4939475;28;6959;-79
2022/10/17 13:11:07;;;;;;;;;;;;;;;25.41;48.31;101070.81;4923692;28;7191;-77
2022/10/17 13:13:52;;;;;;;;;;;;;;;25.44;48.32;101081.28;4935515;28;6776;-78
2022/10/17 13:16:40;;;;;;;;;;;;;;;25.44;48.32;101081.28;4918541;28;8502;-77
2022/10/17 13:19:15;;;;;;;;;;;;;;;25.47;48.21;101092.66;4937164;28;7555;-77
2022/10/17 13:21:57;;;;;;;;;;;;;;;25.48;48.86;101086.53;4927499;28;7195;-78
2022/10/17 13:24:39;;;;;;;;;;;;;;;25.50;48.41;101081.31;4938186;28;7004;-75
2022/10/17 13:27:22;;;;;;;;;;;;;;;25.51;48.54;101089.16;4935077;28;7275;-78